sensor_id;sensor_type;location;lat;lon;timestamp;temperature;humidity
45329;DHT22;31063;48.356;10.896;2022-12-08T00:01:11;2.30;99.90
45329;DHT22;31063;48.356;10.896;2022-12-08T00:03:38;2.30;99.90
45329;DHT22;31063;48.356;10.896;2022-12-08T00:06:05;2.30;99.90
45329;DHT22;31063;48.356;10.896;2022-12-08T00:08:50;2.30;99.90
45329;DHT22;31063;48.356;10.896;2022-12-08T00:11:34;2.30;99.90
45329;DHT22;31063;48.356;10.896;2022-12-08T00:14:00;2.40;99.90
45329;DHT22;31063;48.356;10.896;2022-12-08T00:16:26;2.30;99.90
45329;DHT22;31063;48.356;10.896;2022-12-08T00:18:51;2.30;99.90
45329;DHT22;31063;48.356;10.896;2022-12-08T00:21:17;2.30;99.90
45329;DHT22;31063;48.356;10.896;2022-12-08T00:23:43;2.30;99.90
45329;DHT22;31063;48.356;10.896;2022-12-08T00:26:08;2.30;99.90
45329;DHT22;31063;48.356;10.896;2022-12-08T00:28:34;2.30;99.90
45329;DHT22;31063;48.356;10.896;2022-12-08T00:31:06;2.30;99.90
45329;DHT22;31063;48.356;10.896;2022-12-08T00:33:32;2.30;99.90
45329;DHT22;31063;48.356;10.896;2022-12-08T00:35:58;2.30;99.90
45329;DHT22;31063;48.356;10.896;2022-12-08T00:38:28;2.30;99.90
45329;DHT22;31063;48.356;10.896;2022-12-08T00:40:54;2.30;99.90
45329;DHT22;31063;48.356;10.896;2022-12-08T00:43:20;2.30;99.90
45329;DHT22;31063;48.356;10.896;2022-12-08T00:45:45;2.30;99.90
45329;DHT22;31063;48.356;10.896;2022-12-08T00:48:11;2.30;99.90
45329;DHT22;31063;48.356;10.896;2022-12-08T00:50:36;2.30;99.90
45329;DHT22;31063;48.356;10.896;2022-12-08T00:53:02;2.30;99.90
45329;DHT22;31063;48.356;10.896;2022-12-08T00:55:27;2.30;99.90
45329;DHT22;31063;48.356;10.896;2022-12-08T00:57:53;2.30;99.90
45329;DHT22;31063;48.356;10.896;2022-12-08T01:00:19;2.40;99.90
45329;DHT22;31063;48.356;10.896;2022-12-08T01:02:44;2.40;99.90
45329;DHT22;31063;48.356;10.896;2022-12-08T01:05:10;2.30;99.90
45329;DHT22;31063;48.356;10.896;2022-12-08T01:07:36;2.40;99.90
45329;DHT22;31063;48.356;10.896;2022-12-08T01:10:01;2.40;99.90
45329;DHT22;31063;48.356;10.896;2022-12-08T01:12:30;2.40;99.90
45329;DHT22;31063;48.356;10.896;2022-12-08T01:14:55;2.40;99.90
45329;DHT22;31063;48.356;10.896;2022-12-08T01:17:21;2.40;99.90
45329;DHT22;31063;48.356;10.896;2022-12-08T01:19:47;2.40;99.90
45329;DHT22;31063;48.356;10.896;2022-12-08T01:22:12;2.40;99.90
45329;DHT22;31063;48.356;10.896;2022-12-08T01:24:38;2.40;99.90
45329;DHT22;31063;48.356;10.896;2022-12-08T01:27:03;2.40;99.90
45329;DHT22;31063;48.356;10.896;2022-12-08T01:29:29;2.40;99.90
45329;DHT22;31063;48.356;10.896;2022-12-08T01:31:55;2.40;99.90
45329;DHT22;31063;48.356;10.896;2022-12-08T01:34:20;2.40;99.90
45329;DHT22;31063;48.356;10.896;2022-12-08T01:36:46;2.50;99.90
45329;DHT22;31063;48.356;10.896;2022-12-08T01:39:16;2.50;99.90
45329;DHT22;31063;48.356;10.896;2022-12-08T01:41:43;2.40;99.90
45329;DHT22;31063;48.356;10.896;2022-12-08T01:46:41;2.50;99.90
45329;DHT22;31063;48.356;10.896;2022-12-08T01:54:41;2.50;99.90
45329;DHT22;31063;48.356;10.896;2022-12-08T01:57:15;2.40;99.90
45329;DHT22;31063;48.356;10.896;2022-12-08T01:59:47;2.40;99.90
45329;DHT22;31063;48.356;10.896;2022-12-08T02:02:14;2.40;99.90
45329;DHT22;31063;48.356;10.896;2022-12-08T02:04:40;2.40;99.90
45329;DHT22;31063;48.356;10.896;2022-12-08T02:07:07;2.40;99.90
45329;DHT22;31063;48.356;10.896;2022-12-08T02:09:35;2.40;99.90
45329;DHT22;31063;48.356;10.896;2022-12-08T02:12:01;2.40;99.90
45329;DHT22;31063;48.356;10.896;2022-12-08T02:14:27;2.50;99.90
45329;DHT22;31063;48.356;10.896;2022-12-08T02:22:57;2.40;99.90
45329;DHT22;31063;48.356;10.896;2022-12-08T02:31:15;2.40;99.90
45329;DHT22;31063;48.356;10.896;2022-12-08T02:34:02;2.40;99.90
45329;DHT22;31063;48.356;10.896;2022-12-08T02:39:27;2.40;99.90
45329;DHT22;31063;48.356;10.896;2022-12-08T02:42:01;2.40;99.90
45329;DHT22;31063;48.356;10.896;2022-12-08T02:44:38;2.40;99.90
45329;DHT22;31063;48.356;10.896;2022-12-08T02:47:17;2.40;99.90
45329;DHT22;31063;48.356;10.896;2022-12-08T02:49:44;2.30;99.90
45329;DHT22;31063;48.356;10.896;2022-12-08T02:54:42;2.30;99.90
45329;DHT22;31063;48.356;10.896;2022-12-08T03:00:08;2.30;99.90
45329;DHT22;31063;48.356;10.896;2022-12-08T03:08:06;2.30;99.90
45329;DHT22;31063;48.356;10.896;2022-12-08T03:13:16;2.30;99.90
45329;DHT22;31063;48.356;10.896;2022-12-08T03:15:45;2.30;99.90
45329;DHT22;31063;48.356;10.896;2022-12-08T03:18:15;2.30;99.90
45329;DHT22;31063;48.356;10.896;2022-12-08T03:20:42;2.30;99.90
45329;DHT22;31063;48.356;10.896;2022-12-08T03:23:11;3.90;99.90
45329;DHT22;31063;48.356;10.896;2022-12-08T03:25:42;2.30;99.90
45329;DHT22;31063;48.356;10.896;2022-12-08T03:28:10;3.40;99.90
45329;DHT22;31063;48.356;10.896;2022-12-08T03:30:39;2.30;99.90
45329;DHT22;31063;48.356;10.896;2022-12-08T03:33:12;2.30;99.90
45329;DHT22;31063;48.356;10.896;2022-12-08T03:35:39;2.30;99.90
45329;DHT22;31063;48.356;10.896;2022-12-08T03:38:08;2.40;99.90
45329;DHT22;31063;48.356;10.896;2022-12-08T03:40:35;2.30;99.90
45329;DHT22;31063;48.356;10.896;2022-12-08T03:43:01;2.30;99.90
45329;DHT22;31063;48.356;10.896;2022-12-08T03:45:27;2.30;99.90
45329;DHT22;31063;48.356;10.896;2022-12-08T03:47:53;2.30;99.90
45329;DHT22;31063;48.356;10.896;2022-12-08T03:50:19;2.30;99.90
45329;DHT22;31063;48.356;10.896;2022-12-08T03:52:44;2.30;99.90
45329;DHT22;31063;48.356;10.896;2022-12-08T03:55:10;2.30;99.90
45329;DHT22;31063;48.356;10.896;2022-12-08T03:57:36;2.30;99.90
45329;DHT22;31063;48.356;10.896;2022-12-08T04:00:03;2.70;99.90
45329;DHT22;31063;48.356;10.896;2022-12-08T04:02:29;2.20;99.90
45329;DHT22;31063;48.356;10.896;2022-12-08T04:04:55;2.20;99.90
45329;DHT22;31063;48.356;10.896;2022-12-08T04:07:20;2.30;99.90
45329;DHT22;31063;48.356;10.896;2022-12-08T04:09:46;3.30;99.90
45329;DHT22;31063;48.356;10.896;2022-12-08T04:12:11;2.90;99.90
45329;DHT22;31063;48.356;10.896;2022-12-08T04:14:37;2.20;99.90
45329;DHT22;31063;48.356;10.896;2022-12-08T04:17:03;2.20;99.90
45329;DHT22;31063;48.356;10.896;2022-12-08T04:19:28;2.20;99.90
45329;DHT22;31063;48.356;10.896;2022-12-08T04:21:54;2.20;99.90
45329;DHT22;31063;48.356;10.896;2022-12-08T04:24:20;2.20;99.90
45329;DHT22;31063;48.356;10.896;2022-12-08T04:26:45;2.20;99.90
45329;DHT22;31063;48.356;10.896;2022-12-08T04:29:11;2.20;99.90
45329;DHT22;31063;48.356;10.896;2022-12-08T04:31:36;2.20;99.90
45329;DHT22;31063;48.356;10.896;2022-12-08T04:34:02;2.20;99.90
45329;DHT22;31063;48.356;10.896;2022-12-08T04:36:28;2.20;99.90
45329;DHT22;31063;48.356;10.896;2022-12-08T04:38:53;2.10;99.90
45329;DHT22;31063;48.356;10.896;2022-12-08T04:41:19;2.10;99.90
45329;DHT22;31063;48.356;10.896;2022-12-08T04:43:45;2.10;99.90
45329;DHT22;31063;48.356;10.896;2022-12-08T04:46:11;3.60;99.90
45329;DHT22;31063;48.356;10.896;2022-12-08T04:48:37;3.70;99.90
45329;DHT22;31063;48.356;10.896;2022-12-08T04:51:03;2.00;99.90
45329;DHT22;31063;48.356;10.896;2022-12-08T04:53:28;2.00;99.90
45329;DHT22;31063;48.356;10.896;2022-12-08T04:55:54;2.00;99.90
45329;DHT22;31063;48.356;10.896;2022-12-08T04:58:20;1.90;99.90
45329;DHT22;31063;48.356;10.896;2022-12-08T05:00:46;1.90;99.90
45329;DHT22;31063;48.356;10.896;2022-12-08T05:03:12;1.90;99.90
45329;DHT22;31063;48.356;10.896;2022-12-08T05:05:38;1.80;99.90
45329;DHT22;31063;48.356;10.896;2022-12-08T05:08:04;1.80;99.90
45329;DHT22;31063;48.356;10.896;2022-12-08T05:10:31;1.80;99.90
45329;DHT22;31063;48.356;10.896;2022-12-08T05:12:57;1.70;99.90
45329;DHT22;31063;48.356;10.896;2022-12-08T05:15:23;2.20;99.90
45329;DHT22;31063;48.356;10.896;2022-12-08T05:17:49;1.70;99.90
45329;DHT22;31063;48.356;10.896;2022-12-08T05:20:15;1.60;99.90
45329;DHT22;31063;48.356;10.896;2022-12-08T05:22:40;1.60;99.90
45329;DHT22;31063;48.356;10.896;2022-12-08T05:25:06;1.60;99.90
45329;DHT22;31063;48.356;10.896;2022-12-08T05:27:32;1.50;99.90
45329;DHT22;31063;48.356;10.896;2022-12-08T05:29:58;1.50;99.90
45329;DHT22;31063;48.356;10.896;2022-12-08T05:32:24;1.50;99.90
45329;DHT22;31063;48.356;10.896;2022-12-08T05:34:49;1.80;99.90
45329;DHT22;31063;48.356;10.896;2022-12-08T05:37:15;1.40;99.90
45329;DHT22;31063;48.356;10.896;2022-12-08T05:39:41;1.50;99.90
45329;DHT22;31063;48.356;10.896;2022-12-08T05:42:06;1.40;99.90
45329;DHT22;31063;48.356;10.896;2022-12-08T05:44:32;1.40;99.90
45329;DHT22;31063;48.356;10.896;2022-12-08T05:46:58;1.40;99.90
45329;DHT22;31063;48.356;10.896;2022-12-08T05:49:24;1.30;99.90
45329;DHT22;31063;48.356;10.896;2022-12-08T05:51:49;1.30;99.90
45329;DHT22;31063;48.356;10.896;2022-12-08T05:56:49;1.30;99.90
45329;DHT22;31063;48.356;10.896;2022-12-08T05:59:14;1.20;99.90
45329;DHT22;31063;48.356;10.896;2022-12-08T06:01:41;1.20;99.90
45329;DHT22;31063;48.356;10.896;2022-12-08T06:04:08;1.20;99.90
45329;DHT22;31063;48.356;10.896;2022-12-08T06:06:34;1.20;99.90
45329;DHT22;31063;48.356;10.896;2022-12-08T06:09:02;1.10;99.90
45329;DHT22;31063;48.356;10.896;2022-12-08T06:11:29;1.20;99.90
45329;DHT22;31063;48.356;10.896;2022-12-08T06:13:56;1.20;99.90
45329;DHT22;31063;48.356;10.896;2022-12-08T06:16:22;1.20;99.90
45329;DHT22;31063;48.356;10.896;2022-12-08T06:18:48;1.20;99.90
45329;DHT22;31063;48.356;10.896;2022-12-08T06:21:15;1.20;99.90
45329;DHT22;31063;48.356;10.896;2022-12-08T06:23:41;1.20;99.90
45329;DHT22;31063;48.356;10.896;2022-12-08T06:26:12;1.20;99.90
45329;DHT22;31063;48.356;10.896;2022-12-08T06:28:38;1.20;99.90
45329;DHT22;31063;48.356;10.896;2022-12-08T06:31:09;1.20;99.90
45329;DHT22;31063;48.356;10.896;2022-12-08T06:33:36;1.20;99.90
45329;DHT22;31063;48.356;10.896;2022-12-08T06:36:02;1.10;99.90
45329;DHT22;31063;48.356;10.896;2022-12-08T06:38:28;1.10;99.90
45329;DHT22;31063;48.356;10.896;2022-12-08T06:40:55;1.20;99.90
45329;DHT22;31063;48.356;10.896;2022-12-08T06:43:21;1.20;99.90
45329;DHT22;31063;48.356;10.896;2022-12-08T06:45:47;1.20;99.90
45329;DHT22;31063;48.356;10.896;2022-12-08T06:48:12;1.20;99.90
45329;DHT22;31063;48.356;10.896;2022-12-08T06:50:38;1.20;99.90
45329;DHT22;31063;48.356;10.896;2022-12-08T06:53:03;1.20;99.90
45329;DHT22;31063;48.356;10.896;2022-12-08T06:55:29;1.20;99.90
45329;DHT22;31063;48.356;10.896;2022-12-08T06:57:55;1.20;99.90
45329;DHT22;31063;48.356;10.896;2022-12-08T07:00:21;2.40;99.90
45329;DHT22;31063;48.356;10.896;2022-12-08T07:02:46;0.70;99.90
45329;DHT22;31063;48.356;10.896;2022-12-08T07:05:12;1.20;99.90
45329;DHT22;31063;48.356;10.896;2022-12-08T07:07:38;1.30;99.90
45329;DHT22;31063;48.356;10.896;2022-12-08T07:10:04;1.30;99.90
45329;DHT22;31063;48.356;10.896;2022-12-08T07:12:30;1.30;99.90
45329;DHT22;31063;48.356;10.896;2022-12-08T07:14:55;1.30;99.90
45329;DHT22;31063;48.356;10.896;2022-12-08T07:17:21;1.30;99.90
45329;DHT22;31063;48.356;10.896;2022-12-08T07:19:47;1.30;99.90
45329;DHT22;31063;48.356;10.896;2022-12-08T07:22:12;1.30;99.90
45329;DHT22;31063;48.356;10.896;2022-12-08T07:24:38;1.40;99.90
45329;DHT22;31063;48.356;10.896;2022-12-08T07:27:03;1.40;99.90
45329;DHT22;31063;48.356;10.896;2022-12-08T07:29:29;1.40;99.90
45329;DHT22;31063;48.356;10.896;2022-12-08T07:31:55;1.40;99.90
45329;DHT22;31063;48.356;10.896;2022-12-08T07:34:20;1.40;99.90
45329;DHT22;31063;48.356;10.896;2022-12-08T07:36:46;1.50;99.90
45329;DHT22;31063;48.356;10.896;2022-12-08T07:39:11;1.50;99.90
45329;DHT22;31063;48.356;10.896;2022-12-08T07:41:37;1.50;99.90
45329;DHT22;31063;48.356;10.896;2022-12-08T07:44:03;1.50;99.90
45329;DHT22;31063;48.356;10.896;2022-12-08T07:46:28;1.50;99.90
45329;DHT22;31063;48.356;10.896;2022-12-08T07:48:55;1.50;99.90
45329;DHT22;31063;48.356;10.896;2022-12-08T07:51:21;1.50;99.90
45329;DHT22;31063;48.356;10.896;2022-12-08T07:53:49;1.60;99.90
45329;DHT22;31063;48.356;10.896;2022-12-08T07:56:15;1.60;99.90
45329;DHT22;31063;48.356;10.896;2022-12-08T07:58:41;1.70;99.90
45329;DHT22;31063;48.356;10.896;2022-12-08T08:01:22;1.70;99.90
45329;DHT22;31063;48.356;10.896;2022-12-08T08:03:48;1.80;99.90
45329;DHT22;31063;48.356;10.896;2022-12-08T08:06:13;1.80;99.90
45329;DHT22;31063;48.356;10.896;2022-12-08T08:08:39;1.80;99.90
45329;DHT22;31063;48.356;10.896;2022-12-08T08:11:06;1.80;99.90
45329;DHT22;31063;48.356;10.896;2022-12-08T08:13:31;1.80;99.90
45329;DHT22;31063;48.356;10.896;2022-12-08T08:16:05;1.90;99.90
45329;DHT22;31063;48.356;10.896;2022-12-08T08:18:31;1.90;99.90
45329;DHT22;31063;48.356;10.896;2022-12-08T08:20:57;1.90;99.90
45329;DHT22;31063;48.356;10.896;2022-12-08T08:23:23;1.90;99.90
45329;DHT22;31063;48.356;10.896;2022-12-08T08:25:48;2.00;99.90
45329;DHT22;31063;48.356;10.896;2022-12-08T08:28:14;2.00;99.90
45329;DHT22;31063;48.356;10.896;2022-12-08T08:30:40;2.00;99.90
45329;DHT22;31063;48.356;10.896;2022-12-08T08:33:06;2.00;99.90
45329;DHT22;31063;48.356;10.896;2022-12-08T08:35:32;2.10;99.90
45329;DHT22;31063;48.356;10.896;2022-12-08T08:37:58;2.10;99.90
45329;DHT22;31063;48.356;10.896;2022-12-08T08:40:23;2.10;99.90
45329;DHT22;31063;48.356;10.896;2022-12-08T08:42:49;2.20;99.90
45329;DHT22;31063;48.356;10.896;2022-12-08T08:45:14;2.20;99.90
45329;DHT22;31063;48.356;10.896;2022-12-08T08:47:40;2.30;99.90
45329;DHT22;31063;48.356;10.896;2022-12-08T08:50:06;2.20;99.90
45329;DHT22;31063;48.356;10.896;2022-12-08T08:52:31;2.20;99.90
45329;DHT22;31063;48.356;10.896;2022-12-08T08:54:57;2.20;99.90
45329;DHT22;31063;48.356;10.896;2022-12-08T08:57:23;2.20;99.90
45329;DHT22;31063;48.356;10.896;2022-12-08T08:59:48;2.20;99.90
45329;DHT22;31063;48.356;10.896;2022-12-08T09:02:16;2.30;99.90
45329;DHT22;31063;48.356;10.896;2022-12-08T09:04:42;2.40;99.90
45329;DHT22;31063;48.356;10.896;2022-12-08T09:07:08;2.40;99.90
45329;DHT22;31063;48.356;10.896;2022-12-08T09:09:34;2.40;99.90
45329;DHT22;31063;48.356;10.896;2022-12-08T09:11:59;2.50;99.90
45329;DHT22;31063;48.356;10.896;2022-12-08T09:14:25;2.50;99.90
45329;DHT22;31063;48.356;10.896;2022-12-08T09:16:52;2.60;99.90
45329;DHT22;31063;48.356;10.896;2022-12-08T09:19:18;2.60;99.90
45329;DHT22;31063;48.356;10.896;2022-12-08T09:21:43;2.60;99.90
45329;DHT22;31063;48.356;10.896;2022-12-08T09:24:09;2.60;99.90
45329;DHT22;31063;48.356;10.896;2022-12-08T09:26:40;2.70;99.90
45329;DHT22;31063;48.356;10.896;2022-12-08T09:29:07;2.70;99.90
45329;DHT22;31063;48.356;10.896;2022-12-08T09:31:32;2.60;99.90
45329;DHT22;31063;48.356;10.896;2022-12-08T09:33:58;2.70;99.90
45329;DHT22;31063;48.356;10.896;2022-12-08T09:36:24;2.70;99.90
45329;DHT22;31063;48.356;10.896;2022-12-08T09:38:50;2.70;99.90
45329;DHT22;31063;48.356;10.896;2022-12-08T09:46:46;2.70;99.90
45329;DHT22;31063;48.356;10.896;2022-12-08T09:49:15;2.70;99.90
45329;DHT22;31063;48.356;10.896;2022-12-08T09:51:43;2.80;99.90
45329;DHT22;31063;48.356;10.896;2022-12-08T09:54:20;2.80;99.90
45329;DHT22;31063;48.356;10.896;2022-12-08T09:56:47;2.80;99.90
45329;DHT22;31063;48.356;10.896;2022-12-08T09:59:30;2.80;99.90
45329;DHT22;31063;48.356;10.896;2022-12-08T10:01:56;2.80;99.90
45329;DHT22;31063;48.356;10.896;2022-12-08T10:04:28;2.80;99.90
45329;DHT22;31063;48.356;10.896;2022-12-08T10:09:51;2.90;99.90
45329;DHT22;31063;48.356;10.896;2022-12-08T10:12:42;2.80;99.90
45329;DHT22;31063;48.356;10.896;2022-12-08T10:15:34;2.90;99.90
45329;DHT22;31063;48.356;10.896;2022-12-08T10:18:02;2.90;99.90
45329;DHT22;31063;48.356;10.896;2022-12-08T10:20:36;2.90;99.90
45329;DHT22;31063;48.356;10.896;2022-12-08T10:28:11;3.00;99.90
45329;DHT22;31063;48.356;10.896;2022-12-08T10:30:37;3.00;99.90
45329;DHT22;31063;48.356;10.896;2022-12-08T10:33:03;3.10;99.90
45329;DHT22;31063;48.356;10.896;2022-12-08T10:36:01;3.10;99.90
45329;DHT22;31063;48.356;10.896;2022-12-08T10:38:34;3.10;99.90
45329;DHT22;31063;48.356;10.896;2022-12-08T10:43:46;3.20;99.90
45329;DHT22;31063;48.356;10.896;2022-12-08T10:46:31;3.20;99.90
45329;DHT22;31063;48.356;10.896;2022-12-08T10:49:10;3.30;99.90
45329;DHT22;31063;48.356;10.896;2022-12-08T10:51:40;3.30;99.90
45329;DHT22;31063;48.356;10.896;2022-12-08T10:56:56;3.40;99.90
45329;DHT22;31063;48.356;10.896;2022-12-08T10:59:22;3.40;99.90
45329;DHT22;31063;48.356;10.896;2022-12-08T11:01:51;3.40;99.90
45329;DHT22;31063;48.356;10.896;2022-12-08T11:04:34;3.50;99.90
45329;DHT22;31063;48.356;10.896;2022-12-08T11:07:02;3.50;99.90
45329;DHT22;31063;48.356;10.896;2022-12-08T11:09:41;3.50;99.90
45329;DHT22;31063;48.356;10.896;2022-12-08T11:12:20;3.60;99.90
45329;DHT22;31063;48.356;10.896;2022-12-08T11:14:55;3.60;99.90
45329;DHT22;31063;48.356;10.896;2022-12-08T11:19:58;3.70;99.90
45329;DHT22;31063;48.356;10.896;2022-12-08T11:27:37;3.80;99.90
45329;DHT22;31063;48.356;10.896;2022-12-08T11:30:25;3.90;99.90
45329;DHT22;31063;48.356;10.896;2022-12-08T11:33:02;3.80;99.90
45329;DHT22;31063;48.356;10.896;2022-12-08T11:35:36;3.90;99.90
45329;DHT22;31063;48.356;10.896;2022-12-08T11:38:23;3.90;99.90
45329;DHT22;31063;48.356;10.896;2022-12-08T11:41:12;4.00;99.90
45329;DHT22;31063;48.356;10.896;2022-12-08T11:43:43;4.00;99.90
45329;DHT22;31063;48.356;10.896;2022-12-08T11:48:49;4.10;99.90
45329;DHT22;31063;48.356;10.896;2022-12-08T11:51:20;4.10;99.90
45329;DHT22;31063;48.356;10.896;2022-12-08T11:56:48;4.10;99.90
45329;DHT22;31063;48.356;10.896;2022-12-08T12:01:45;4.30;99.90
45329;DHT22;31063;48.356;10.896;2022-12-08T12:08:02;4.30;99.90
45329;DHT22;31063;48.356;10.896;2022-12-08T12:12:49;4.30;99.90
45329;DHT22;31063;48.356;10.896;2022-12-08T12:20:32;4.30;99.90
45329;DHT22;31063;48.356;10.896;2022-12-08T12:23:03;4.30;99.90
45329;DHT22;31063;48.356;10.896;2022-12-08T12:25:32;4.30;99.90
45329;DHT22;31063;48.356;10.896;2022-12-08T12:28:02;4.30;99.90
45329;DHT22;31063;48.356;10.896;2022-12-08T12:30:52;4.40;99.90
45329;DHT22;31063;48.356;10.896;2022-12-08T12:33:19;4.40;99.90
45329;DHT22;31063;48.356;10.896;2022-12-08T12:35:45;4.40;99.90
45329;DHT22;31063;48.356;10.896;2022-12-08T12:38:28;4.40;99.90
45329;DHT22;31063;48.356;10.896;2022-12-08T12:41:14;4.40;99.90
45329;DHT22;31063;48.356;10.896;2022-12-08T12:43:40;4.50;99.90
45329;DHT22;31063;48.356;10.896;2022-12-08T12:52:03;4.50;99.90
45329;DHT22;31063;48.356;10.896;2022-12-08T12:54:29;4.50;99.90
45329;DHT22;31063;48.356;10.896;2022-12-08T13:02:59;4.50;99.90
45329;DHT22;31063;48.356;10.896;2022-12-08T13:05:14;4.50;99.90
45329;DHT22;31063;48.356;10.896;2022-12-08T13:07:55;4.50;99.90
45329;DHT22;31063;48.356;10.896;2022-12-08T13:10:31;4.40;99.90
45329;DHT22;31063;48.356;10.896;2022-12-08T13:15:38;4.50;99.90
45329;DHT22;31063;48.356;10.896;2022-12-08T13:18:25;4.50;99.90
45329;DHT22;31063;48.356;10.896;2022-12-08T13:31:45;4.30;99.90
45329;DHT22;31063;48.356;10.896;2022-12-08T13:34:35;4.30;99.90
45329;DHT22;31063;48.356;10.896;2022-12-08T13:43:20;4.30;99.90
45329;DHT22;31063;48.356;10.896;2022-12-08T13:45:17;4.30;99.90
45329;DHT22;31063;48.356;10.896;2022-12-08T13:50:11;4.30;99.90
45329;DHT22;31063;48.356;10.896;2022-12-08T13:55:43;4.20;99.90
45329;DHT22;31063;48.356;10.896;2022-12-08T13:58:50;4.20;99.90
45329;DHT22;31063;48.356;10.896;2022-12-08T14:01:40;4.10;99.90
45329;DHT22;31063;48.356;10.896;2022-12-08T14:04:17;4.20;99.90
45329;DHT22;31063;48.356;10.896;2022-12-08T14:06:48;4.10;99.90
45329;DHT22;31063;48.356;10.896;2022-12-08T14:09:20;4.10;99.90
45329;DHT22;31063;48.356;10.896;2022-12-08T14:11:51;4.10;99.90
45329;DHT22;31063;48.356;10.896;2022-12-08T14:17:00;4.00;99.90
45329;DHT22;31063;48.356;10.896;2022-12-08T14:19:29;4.00;99.90
45329;DHT22;31063;48.356;10.896;2022-12-08T14:22:00;4.00;99.90
45329;DHT22;31063;48.356;10.896;2022-12-08T14:24:29;3.90;99.90
45329;DHT22;31063;48.356;10.896;2022-12-08T14:27:10;4.00;99.90
45329;DHT22;31063;48.356;10.896;2022-12-08T14:32:30;3.90;99.90
45329;DHT22;31063;48.356;10.896;2022-12-08T14:37:40;3.90;99.90
45329;DHT22;31063;48.356;10.896;2022-12-08T14:42:52;3.90;99.90
45329;DHT22;31063;48.356;10.896;2022-12-08T14:45:18;3.80;99.90
45329;DHT22;31063;48.356;10.896;2022-12-08T14:47:45;3.80;99.90
45329;DHT22;31063;48.356;10.896;2022-12-08T14:50:40;3.80;99.90
45329;DHT22;31063;48.356;10.896;2022-12-08T14:53:13;3.80;99.90
45329;DHT22;31063;48.356;10.896;2022-12-08T14:55:43;3.80;99.90
45329;DHT22;31063;48.356;10.896;2022-12-08T14:58:36;3.70;99.90
45329;DHT22;31063;48.356;10.896;2022-12-08T15:01:05;3.70;99.90
45329;DHT22;31063;48.356;10.896;2022-12-08T15:03:31;3.70;99.90
45329;DHT22;31063;48.356;10.896;2022-12-08T15:06:04;3.70;99.90
45329;DHT22;31063;48.356;10.896;2022-12-08T15:08:30;3.70;99.90
45329;DHT22;31063;48.356;10.896;2022-12-08T15:13:50;3.60;99.90
45329;DHT22;31063;48.356;10.896;2022-12-08T15:16:36;3.60;99.90
45329;DHT22;31063;48.356;10.896;2022-12-08T15:19:14;3.60;99.90
45329;DHT22;31063;48.356;10.896;2022-12-08T15:21:40;3.50;99.90
45329;DHT22;31063;48.356;10.896;2022-12-08T15:24:11;3.60;99.90
45329;DHT22;31063;48.356;10.896;2022-12-08T15:26:45;3.60;99.90
45329;DHT22;31063;48.356;10.896;2022-12-08T15:29:28;3.50;99.90
45329;DHT22;31063;48.356;10.896;2022-12-08T15:32:00;3.50;99.90
45329;DHT22;31063;48.356;10.896;2022-12-08T15:34:26;3.50;99.90
45329;DHT22;31063;48.356;10.896;2022-12-08T15:36:53;3.50;99.90
45329;DHT22;31063;48.356;10.896;2022-12-08T15:39:35;3.40;99.90
45329;DHT22;31063;48.356;10.896;2022-12-08T15:42:02;3.50;99.90
45329;DHT22;31063;48.356;10.896;2022-12-08T15:44:28;3.40;99.90
45329;DHT22;31063;48.356;10.896;2022-12-08T15:46:57;3.40;99.90
45329;DHT22;31063;48.356;10.896;2022-12-08T15:49:23;3.50;99.90
45329;DHT22;31063;48.356;10.896;2022-12-08T15:51:50;3.40;99.90
45329;DHT22;31063;48.356;10.896;2022-12-08T15:54:16;3.50;99.90
45329;DHT22;31063;48.356;10.896;2022-12-08T15:56:53;3.30;99.90
45329;DHT22;31063;48.356;10.896;2022-12-08T15:59:21;3.30;99.90
45329;DHT22;31063;48.356;10.896;2022-12-08T16:01:48;3.30;99.90
45329;DHT22;31063;48.356;10.896;2022-12-08T16:04:16;3.30;99.90
45329;DHT22;31063;48.356;10.896;2022-12-08T16:06:45;3.30;99.90
45329;DHT22;31063;48.356;10.896;2022-12-08T16:09:22;3.30;99.90
45329;DHT22;31063;48.356;10.896;2022-12-08T16:11:51;3.30;99.90
45329;DHT22;31063;48.356;10.896;2022-12-08T16:14:35;3.30;99.90
45329;DHT22;31063;48.356;10.896;2022-12-08T16:17:01;3.30;99.90
45329;DHT22;31063;48.356;10.896;2022-12-08T16:19:26;3.30;99.90
45329;DHT22;31063;48.356;10.896;2022-12-08T16:21:52;3.30;99.90
45329;DHT22;31063;48.356;10.896;2022-12-08T16:26:18;3.30;99.90
45329;DHT22;31063;48.356;10.896;2022-12-08T16:28:45;3.30;99.90
45329;DHT22;31063;48.356;10.896;2022-12-08T16:31:12;3.20;99.90
45329;DHT22;31063;48.356;10.896;2022-12-08T16:33:38;3.20;99.90
45329;DHT22;31063;48.356;10.896;2022-12-08T16:36:04;3.20;99.90
45329;DHT22;31063;48.356;10.896;2022-12-08T16:38:30;3.30;99.90
45329;DHT22;31063;48.356;10.896;2022-12-08T16:40:56;3.30;99.90
45329;DHT22;31063;48.356;10.896;2022-12-08T16:43:40;3.20;99.90
45329;DHT22;31063;48.356;10.896;2022-12-08T16:46:05;3.20;99.90
45329;DHT22;31063;48.356;10.896;2022-12-08T16:48:31;3.20;99.90
45329;DHT22;31063;48.356;10.896;2022-12-08T16:50:57;3.20;99.90
45329;DHT22;31063;48.356;10.896;2022-12-08T16:53:22;3.20;99.90
45329;DHT22;31063;48.356;10.896;2022-12-08T16:55:49;3.10;99.90
45329;DHT22;31063;48.356;10.896;2022-12-08T16:58:15;3.10;99.90
45329;DHT22;31063;48.356;10.896;2022-12-08T17:00:42;3.10;99.90
45329;DHT22;31063;48.356;10.896;2022-12-08T17:03:12;3.10;99.90
45329;DHT22;31063;48.356;10.896;2022-12-08T17:05:39;3.10;99.90
45329;DHT22;31063;48.356;10.896;2022-12-08T17:08:05;3.10;99.90
45329;DHT22;31063;48.356;10.896;2022-12-08T17:10:31;3.10;99.90
45329;DHT22;31063;48.356;10.896;2022-12-08T17:13:00;3.00;99.90
45329;DHT22;31063;48.356;10.896;2022-12-08T17:15:26;3.00;99.90
45329;DHT22;31063;48.356;10.896;2022-12-08T17:17:52;3.00;99.90
45329;DHT22;31063;48.356;10.896;2022-12-08T17:20:20;3.00;99.90
45329;DHT22;31063;48.356;10.896;2022-12-08T17:22:46;3.00;99.90
45329;DHT22;31063;48.356;10.896;2022-12-08T17:25:12;3.00;99.90
45329;DHT22;31063;48.356;10.896;2022-12-08T17:27:39;3.00;99.90
45329;DHT22;31063;48.356;10.896;2022-12-08T17:30:06;2.90;99.90
45329;DHT22;31063;48.356;10.896;2022-12-08T17:32:32;2.90;99.90
45329;DHT22;31063;48.356;10.896;2022-12-08T17:34:57;2.90;99.90
45329;DHT22;31063;48.356;10.896;2022-12-08T17:37:23;2.90;99.90
45329;DHT22;31063;48.356;10.896;2022-12-08T17:39:49;2.90;99.90
45329;DHT22;31063;48.356;10.896;2022-12-08T17:42:14;2.90;99.90
45329;DHT22;31063;48.356;10.896;2022-12-08T17:44:40;2.90;99.90
45329;DHT22;31063;48.356;10.896;2022-12-08T17:47:06;2.90;99.90
45329;DHT22;31063;48.356;10.896;2022-12-08T17:49:31;2.80;99.90
45329;DHT22;31063;48.356;10.896;2022-12-08T17:51:59;2.80;99.90
45329;DHT22;31063;48.356;10.896;2022-12-08T17:54:25;2.80;99.90
45329;DHT22;31063;48.356;10.896;2022-12-08T17:56:52;2.80;99.90